Flight Track Log - Related Links

Times and Time Zones

All times are in EDT time to prevent confusion due to time zone crossing. See the EVA716 flight status page for this flight to view local times or setup timezone preferences in your user account.

Time Position Orientation Groundspeed Altitude Reporting Facility
EDT Latitude Longitude Course Direction KTS MPH feet Rate Location/Type
Mon 04:45:59 AM 25.0710 121.2360 42° Northeast 155 178  Level FlightAware ADS-B
Mon 04:46:11 AM 25.0770 121.2440 50° Northeast 175 201 2,250 Level FlightAware ADS-B
Mon 04:46:31 AM 25.0890 121.2590 49° Northeast 194 223 1,200 3,000 Climbing FlightAware ADS-B
Mon 04:46:47 AM 25.0990 121.2710 47° Northeast 195 224 1,800 1,667 Climbing FlightAware ADS-B
Mon 04:47:07 AM 25.1110 121.2870 50° Northeast 217 250 2,200 1,500 Climbing FlightAware ADS-B
Mon 04:47:27 AM 25.1260 121.3050 47° Northeast 249 287 2,800 2,133 Climbing FlightAware ADS-B
Mon 04:47:52 AM 25.1490 121.3240 37° Northeast 269 310 3,800 2,595 Climbing FlightAware ADS-B
Mon 04:48:04 AM 25.1600 121.3330 37° Northeast 273 314 4,400 2,571 Climbing FlightAware ADS-B
Mon 04:48:27 AM 25.1880 121.3540 34° Northeast 303 349 5,300 2,791 Climbing FlightAware ADS-B
Mon 04:48:47 AM 25.2120 121.3710 33° Northeast 310 357 6,400 3,300 Climbing FlightAware ADS-B
Mon 04:49:07 AM 25.2360 121.3890 34° Northeast 316 364 7,500 3,150 Climbing FlightAware ADS-B
Mon 04:49:27 AM 25.2610 121.4080 35° Northeast 327 376 8,500 2,182 Climbing FlightAware ADS-B
Mon 04:49:51 AM 25.2920 121.4310 34° Northeast 355 409 9,100 1,867 Climbing FlightAware ADS-B
Mon 04:50:12 AM 25.3210 121.4530 34° Northeast 369 425 9,900 2,778 Climbing FlightAware ADS-B
Mon 04:50:45 AM 25.3700 121.4890 34° Northeast 377 434 11,600 2,870 Climbing FlightAware ADS-B
Mon 04:51:21 AM 25.4220 121.5280 34° Northeast 388 447 13,200 2,417 Climbing FlightAware ADS-B
Mon 04:51:57 AM 25.4770 121.5690 34° Northeast 404 465 14,500 2,294 Climbing FlightAware ADS-B
Mon 04:52:29 AM 25.5280 121.6070 34° Northeast 413 475 15,800 2,348 Climbing FlightAware ADS-B
Mon 04:53:06 AM 25.5870 121.6520 35° Northeast 423 487 17,200 2,219 Climbing FlightAware ADS-B
Mon 04:53:42 AM 25.6460 121.6970 35° Northeast 433 498 18,500 1,750 Climbing FlightAware ADS-B
Mon 04:54:18 AM 25.7070 121.7430 34° Northeast 447 514 19,300 1,765 Climbing FlightAware ADS-B
Mon 04:54:50 AM 25.7620 121.7840 34° Northeast 454 522 20,500 2,029 Climbing FlightAware ADS-B
Mon 04:55:26 AM 25.8240 121.8310 34° Northeast 464 534 21,600 1,800 Climbing FlightAware ADS-B
Mon 04:56:00 AM 25.8820 121.8780 36° Northeast 472 543 22,600 1,818 Climbing FlightAware ADS-B
Mon 04:56:32 AM 25.9430 121.9280 36° Northeast 482 555 23,600 1,800 Climbing FlightAware ADS-B
Mon 04:57:10 AM 26.0090 121.9820 36° Northeast 482 555 24,700 1,105 Climbing FlightAware ADS-B
Mon 04:57:48 AM 26.0790 122.0380 36° Northeast 493 567 25,000 250 Climbing FlightAware ADS-B
Mon 04:58:22 AM 26.1440 122.0880 35° Northeast 501 577 25,000  Level FlightAware ADS-B
Mon 04:58:58 AM 26.2110 122.1400 35° Northeast 500 575 25,000  Level FlightAware ADS-B
Mon 04:59:30 AM 26.2740 122.1890 35° Northeast 501 577 25,000  Level FlightAware ADS-B
Mon 05:00:04 AM 26.3380 122.2400 36° Northeast 502 578 25,000  Level FlightAware ADS-B
Mon 05:00:40 AM 26.4070 122.2940 35° Northeast 501 577 25,000  Level FlightAware ADS-B
Mon 05:01:14 AM 26.4710 122.3440 35° Northeast 501 577 25,000  Level FlightAware ADS-B
Mon 05:01:50 AM 26.5380 122.3970 35° Northeast 500 575 25,000  Level FlightAware ADS-B
Mon 05:02:26 AM 26.6080 122.4530 36° Northeast 498 573 25,000  Level FlightAware ADS-B
Mon 05:03:04 AM 26.6690 122.5010 35° Northeast 498 573 25,000  Level FlightAware ADS-B
Mon 05:03:34 AM 26.7350 122.5530 35° Northeast 499 574 25,000  Level FlightAware ADS-B
Mon 05:04:17 AM 26.8020 122.6060 35° Northeast 499 574 25,000  Level FlightAware ADS-B
Mon 05:04:51 AM 26.8560 122.6480 35° Northeast 499 574 25,000  Level FlightAware ADS-B
Mon 05:05:27 AM 26.9140 122.6940 35° Northeast 499 574 25,000  Level FlightAware ADS-B
Mon 05:06:03 AM 26.9720 122.7390 35° Northeast 499 574 25,000  Level FlightAware ADS-B
Mon 05:06:39 AM 27.0300 122.7850 35° Northeast 499 574 25,000  Level FlightAware ADS-B
Mon 05:07:15 AM 27.0880 122.8300 35° Northeast 499 574 25,000  Level FlightAware ADS-B
Mon 05:09:00 AM 27.2636 122.7575 340° North  Level Estimated
Mon 05:09:37 AM 27.4260 122.8070 340° North 484 557 25,000  Level FlightAware ADS-B
Mon 05:10:10 AM 27.4390 122.7280 281° West 473 544 25,000  Level FlightAware ADS-B
Mon 05:10:35 AM 27.4390 122.6760 270° West 473 544 25,000  Level FlightAware ADS-B
Mon 05:11:10 AM 27.4390 122.5780 270° West 473 544 25,000  Level FlightAware ADS-B
Mon 05:11:46 AM 27.4390 122.4890 270° West 472 543 25,000  Level FlightAware ADS-B
Mon 05:12:20 AM 27.4430 122.4040 273° West 473 544 25,000  Level FlightAware ADS-B
Mon 05:12:56 AM 27.4560 122.3190 280° West 472 543 25,000  Level FlightAware ADS-B
Mon 05:13:42 AM 27.4740 122.2170 281° West 472 543 25,000 -237 Level FlightAware ADS-B
Mon 05:14:12 AM 27.4930 122.1380 285° West 482 555 24,700 -387 Descending FlightAware ADS-B
Mon 05:14:44 AM 27.5280 122.0710 301° West 486 559 24,600 -86 Descending FlightAware ADS-B
Mon 05:15:22 AM 27.5630 122.0000 299° West 486 559 24,600  Level FlightAware ADS-B
Mon 05:15:58 AM 27.5960 121.9320 299° West 486 559 24,600  Level FlightAware ADS-B
Mon 05:16:26 AM 27.5940 121.8230 269° West 476 548 24,600  Level FlightAware ADS-B
Mon 05:17:03 AM 27.6070 121.7450 281° West 476 548 24,600  Level FlightAware ADS-B
Mon 05:17:38 AM 27.6240 121.6460 281° West 477 549 24,600  Level FlightAware ADS-B
Mon 05:18:10 AM 27.6370 121.5690 281° West 476 548 24,600  Level FlightAware ADS-B
Mon 05:18:46 AM 27.6530 121.4830 282° West 475 547 24,600  Level FlightAware ADS-B
Mon 05:19:22 AM 27.6680 121.3960 281° West 477 549 24,600  Level FlightAware ADS-B
Mon 05:19:54 AM 27.6820 121.3190 282° West 478 550 24,600  Level FlightAware ADS-B
Mon 05:20:31 AM 27.6980 121.2260 281° West 477 549 24,600  Level FlightAware ADS-B
Mon 05:21:06 AM 27.7130 121.1420 281° West 477 549 24,600  Level FlightAware ADS-B
Mon 05:21:39 AM 27.7270 121.0620 281° West 478 550 24,600  Level FlightAware ADS-B
Mon 05:22:14 AM 27.7420 120.9740 281° West 480 552 24,600  Level FlightAware ADS-B
Mon 05:22:49 AM 27.7560 120.8900 281° West 481 554 24,600  Level FlightAware ADS-B
Mon 05:23:24 AM 27.7710 120.8040 281° West 483 556 24,600  Level FlightAware ADS-B
Mon 05:24:00 AM 27.7870 120.7130 281° West 484 557 24,600  Level FlightAware ADS-B
Mon 05:24:32 AM 27.8030 120.6370 283° West 484 557 24,600  Level FlightAware ADS-B
Mon 05:25:10 AM 27.8320 120.5430 289° West 488 562 24,600  Level FlightAware ADS-B
Mon 05:25:39 AM 27.8540 120.4770 291° West 487 560 24,600  Level FlightAware ADS-B
Mon 05:26:19 AM 27.8870 120.3790 291° West 489 563 24,600  Level FlightAware ADS-B
Mon 05:26:52 AM 27.9140 120.2990 291° West 487 560 24,600  Level FlightAware ADS-B
Mon 05:27:30 AM 27.9430 120.2100 290° West 488 562 24,600  Level FlightAware ADS-B
Mon 05:28:03 AM 27.9650 120.1430 290° West 489 563 24,600  Level FlightAware ADS-B
Mon 05:28:42 AM 27.9990 120.0400 291° West 490 564 24,600  Level FlightAware ADS-B
Mon 05:29:28 AM 28.0330 119.9340 290° West 492 566 24,600  Level FlightAware ADS-B
Mon 05:30:04 AM 28.0570 119.8600 290° West 492 566 24,600  Level FlightAware ADS-B
Mon 05:30:40 AM 28.0810 119.7860 290° West 492 566 24,600  Level FlightAware ADS-B
Mon 05:31:16 AM 28.1050 119.7120 290° West 492 566 24,600  Level FlightAware ADS-B
Mon 05:31:52 AM 28.1290 119.6370 290° West 492 566 24,600 3,709 Level FlightAware ADS-B
Mon 05:32:11 AM 28.2510 119.6260 355° North 501 577 28,000 4,385 Climbing FlightAware ADS-B
Mon 05:32:44 AM 28.3280 119.6310 North 509 586 28,400 553 Climbing FlightAware ADS-B
Mon 05:33:27 AM 28.4180 119.6360 North 509 586 28,700 1,037 Climbing FlightAware ADS-B
Mon 05:34:05 AM 28.5170 119.6430 North 517 595 29,800 868 Climbing FlightAware ADS-B
Mon 05:34:43 AM 28.5940 119.6480 North 517 595 29,800 811 Level FlightAware ADS-B
Mon 05:35:19 AM 28.6950 119.6540 North 527 606 30,800 904 Climbing FlightAware ADS-B
Mon 05:35:56 AM 28.7800 119.6570 North 527 606 30,900 82 Climbing FlightAware ADS-B
Mon 05:36:32 AM 28.8540 119.6600 North 527 606 30,900  Level FlightAware ADS-B
Mon 05:37:08 AM 28.9290 119.6630 North 527 606 30,900 185 Level FlightAware ADS-B
Mon 05:37:37 AM 29.0340 119.6730 North 522 601 31,100 158 Climbing FlightAware ADS-B
Mon 05:38:24 AM 29.1370 119.6800 North 520 598 31,100  Level FlightAware ADS-B
Mon 05:39:16 AM 29.2650 119.6860 North 519 597 31,100  Level FlightAware ADS-B
Mon 05:39:53 AM 29.3400 119.6890 North 519 597 31,100  Level FlightAware ADS-B
Mon 05:40:30 AM 29.4160 119.6920 North 519 597 31,100  Level FlightAware ADS-B
Mon 05:41:06 AM 29.4890 119.6950 North 519 597 31,100  Level FlightAware ADS-B
Mon 05:41:43 AM 29.5650 119.6980 North 519 597 31,100  Level FlightAware ADS-B
Mon 05:42:19 AM 29.6380 119.7010 North 519 597 31,100  Level FlightAware ADS-B
Mon 05:42:55 AM 29.7110 119.7040 North 519 597 31,100  Level FlightAware ADS-B
Mon 05:43:32 AM 29.7870 119.7070 North 519 597 31,100  Level FlightAware ADS-B
Mon 05:44:09 AM 29.8620 119.7100 North 519 597 31,100  Level FlightAware ADS-B
Mon 05:44:45 AM 29.9360 119.7130 North 519 597 31,100  Level FlightAware ADS-B
Mon 05:45:21 AM 30.0090 119.7160 North 519 597 31,100  Level FlightAware ADS-B
Mon 05:45:58 AM 30.0850 119.7190 North 519 597 31,100  Level FlightAware ADS-B
Mon 05:46:34 AM 30.1580 119.7220 North 519 597 31,100  Level FlightAware ADS-B
Mon 05:47:10 AM 30.2320 119.7250 North 519 597 31,100  Level FlightAware ADS-B
Mon 05:47:46 AM 30.3050 119.7280 North 519 597 31,100  Level FlightAware ADS-B
Mon 05:48:13 AM 30.4000 120.1610 76° East 505 581 31,100  Level FlightAware ADS-B
Mon 05:48:54 AM 30.4720 120.1040 326° Northwest 497 572 31,100  Level FlightAware ADS-B
Mon 05:49:30 AM 30.5300 120.0580 326° Northwest 497 572 31,100 324 Level FlightAware ADS-B
Mon 05:50:08 AM 30.6160 119.9860 324° Northwest 499 574 31,500 474 Climbing FlightAware ADS-B
Mon 05:50:46 AM 30.6740 119.9400 326° Northwest 499 574 31,700 162 Climbing FlightAware ADS-B
Mon 05:51:22 AM 30.7320 119.8940 326° Northwest 499 574 31,700  Level FlightAware ADS-B
Mon 05:51:58 AM 30.7910 119.8480 326° Northwest 499 574 31,700  Level FlightAware ADS-B
Mon 05:52:34 AM 30.8490 119.8020 326° Northwest 499 574 31,700  Level FlightAware ADS-B
Mon 05:53:11 AM 30.9090 119.7550 326° Northwest 499 574 31,700  Level FlightAware ADS-B
Mon 05:53:47 AM 30.9680 119.7090 326° Northwest 499 574 31,700  Level FlightAware ADS-B
Mon 05:54:21 AM 31.0230 119.6650 326° Northwest 499 574 31,700  Level FlightAware ADS-B
Mon 05:54:57 AM 31.0820 119.6190 326° Northwest 499 574 31,700  Level FlightAware ADS-B
Mon 05:55:33 AM 31.1400 119.5730 326° Northwest 499 574 31,700  Level FlightAware ADS-B
Mon 05:56:09 AM 31.1990 119.5270 326° Northwest 499 574 31,700  Level FlightAware ADS-B
Mon 05:56:45 AM 31.2580 119.4810 326° Northwest 499 574 31,700  Level FlightAware ADS-B
Mon 05:57:21 AM 31.3160 119.4350 326° Northwest 499 574 31,700  Level FlightAware ADS-B
Mon 05:57:57 AM 31.3750 119.3880 326° Northwest 499 574 31,700  Level FlightAware ADS-B
Mon 05:58:33 AM 31.4330 119.3420 326° Northwest 499 574 31,700  Level FlightAware ADS-B
Mon 05:59:09 AM 31.4920 119.2960 326° Northwest 499 574 31,700  Level FlightAware ADS-B
Mon 05:59:46 AM 31.5520 119.2480 326° Northwest 499 574 31,700 -111 Level FlightAware ADS-B
Mon 06:02:00 AM 31.7842 119.1827 347° North  Level Estimated
Mon 06:03:00 AM 31.8881 119.1534 347° North  Level Estimated
Mon 06:04:00 AM 31.9920 119.1239 347° North  Level Estimated
Mon 06:05:00 AM 32.0960 119.0945 346° North  Level Estimated
Mon 06:06:00 AM 32.1999 119.0649 346° North  Level Estimated
Mon 06:07:00 AM 32.3038 119.0353 346° North  Level Estimated
Mon 06:08:00 AM 32.4077 119.0056 346° North  Level Estimated
Mon 06:09:00 AM 32.5116 118.9759 346° North  Level Estimated
Mon 06:10:00 AM 32.6155 118.9461 346° North  Level Estimated
Mon 06:11:00 AM 32.7194 118.9162 346° North  Level Estimated
Mon 06:12:00 AM 32.8232 118.8862 346° North  Level Estimated
Mon 06:13:00 AM 32.9271 118.8562 346° North  Level Estimated
Mon 06:14:00 AM 33.0310 118.8261 346° North  Level Estimated
Mon 06:15:00 AM 33.1348 118.7959 346° North  Level Estimated
Mon 06:16:00 AM 33.2387 118.7657 346° North  Level Estimated
Mon 06:17:00 AM 33.3425 118.7354 346° North  Level Estimated
Mon 06:18:00 AM 33.4464 118.7050 346° North  Level Estimated
Mon 06:19:00 AM 33.5502 118.6745 346° North  Level Estimated
Mon 06:20:00 AM 33.6540 118.6440 346° North  Level Estimated
Mon 06:21:00 AM 33.7578 118.6134 346° North  Level Estimated
Mon 06:22:00 AM 33.8616 118.5827 346° North  Level Estimated
Mon 06:23:00 AM 33.9654 118.5520 346° North  Level Estimated
Mon 06:24:00 AM 34.0692 118.5211 346° North  Level Estimated
Mon 06:25:00 AM 34.1730 118.4902 346° North  Level Estimated
Mon 06:26:00 AM 34.2768 118.4593 346° North  Level Estimated
Mon 06:27:00 AM 34.3805 118.4282 346° North  Level Estimated
Mon 06:28:00 AM 34.4843 118.3971 346° North  Level Estimated
Mon 06:29:00 AM 34.5880 118.3659 346° North  Level Estimated
Mon 06:30:00 AM 34.6918 118.3346 346° North  Level Estimated
Mon 06:31:00 AM 34.7955 118.3032 346° North  Level Estimated
Mon 06:32:00 AM 34.8992 118.2718 346° North  Level Estimated
Mon 06:33:00 AM 35.0029 118.2402 346° North  Level Estimated
Mon 06:34:00 AM 35.1067 118.2086 346° North  Level Estimated
Mon 06:35:00 AM 35.2104 118.1770 346° North  Level Estimated
Mon 06:36:00 AM 35.3140 118.1452 346° North  Level Estimated
Mon 06:36:09 AM 36.4000 116.9700 346° North 514 592 27,600  Level FlightAware ADS-B
Mon 06:36:41 AM 36.4740 116.9540 350° North 517 595 27,600  Level FlightAware ADS-B
Mon 06:37:22 AM 36.5780 116.9320 350° North 519 597 27,600  Level FlightAware ADS-B
Mon 06:37:58 AM 36.6470 116.9170 350° North 520 598 27,600  Level FlightAware ADS-B
Mon 06:38:50 AM 36.7820 116.8880 350° North 517 595 27,600  Level FlightAware ADS-B
Mon 06:39:24 AM 36.8540 116.8730 351° North 510 587 27,600  Level FlightAware ADS-B
Mon 06:40:04 AM 36.9410 116.8540 350° North 509 586 27,600  Level FlightAware ADS-B
Mon 06:40:41 AM 37.0140 116.8380 350° North 509 586 27,600  Level FlightAware ADS-B
Mon 06:41:15 AM 37.0810 116.8230 350° North 509 586 27,600  Level FlightAware ADS-B
Mon 06:41:51 AM 37.1520 116.8070 350° North 509 586 27,600  Level FlightAware ADS-B
Mon 06:42:25 AM 37.2190 116.7930 351° North 509 586 27,600  Level FlightAware ADS-B
Mon 06:43:01 AM 37.2900 116.7770 350° North 509 586 27,600  Level FlightAware ADS-B
Mon 06:43:37 AM 37.3610 116.7610 350° North 509 586 27,600 -814 Level FlightAware ADS-B
Mon 06:46:00 AM 37.6154 116.7450 357° North  Level Estimated
Mon 06:47:00 AM 37.7222 116.7383 357° North  Level Estimated
Mon 06:48:00 AM 37.8289 116.7316 357° North  Level Estimated
Mon 06:49:00 AM 37.9357 116.7248 357° North  Level Estimated
Mon 06:50:00 AM 38.0424 116.7180 357° North  Level Estimated
Mon 06:51:00 AM 38.1492 116.7112 357° North  Level Estimated
Mon 06:52:00 AM 38.2559 116.7044 357° North  Level Estimated
Mon 06:53:00 AM 38.3627 116.6976 357° North  Level Estimated
Mon 06:54:00 AM 38.4694 116.6907 357° North  Level Estimated
Mon 06:55:00 AM 38.5762 116.6838 357° North  Level Estimated
Mon 06:56:00 AM 38.6829 116.6769 357° North  Level Estimated
Mon 06:57:00 AM 38.7897 116.6700 357° North  Level Estimated
Mon 06:58:00 AM 38.8964 116.6630 357° North  Level Estimated
Mon 06:59:00 AM 39.0032 116.6560 357° North  Level Estimated
Mon 07:00:00 AM 39.1099 116.6490 357° North  Level Estimated
Mon 07:01:00 AM 39.2167 116.6420 357° North  Level Estimated
Mon 07:02:00 AM 39.3234 116.6350 357° North  Level Estimated
Mon 07:03:00 AM 39.4302 116.6280 357° North  Level Estimated
Mon 07:04:00 AM 39.5369 116.6209 357° North  Level Estimated
Mon 07:05:00 AM 39.6437 116.6138 357° North  Level Estimated
Mon 07:06:00 AM 39.7504 116.6067 357° North  Level Estimated
Mon 07:07:00 AM 39.8572 116.5995 357° North  Level Estimated
Mon 07:08:00 AM 39.9639 116.5924 357° North  Level Estimated
Mon 07:09:00 AM 40.0707 116.5852 357° North  Level Estimated
Mon 07:10:00 AM 40.0801 116.5846 357° North  Level Estimated
Mon 07:11:00 AM 40.0801 116.5846 288° West  Level Estimated
Mon 07:12:00 AM 40.0801 116.5846 288° West  Level Estimated
Mon 07:13:00 AM 40.0801 116.5846 288° West  Level Estimated
Mon 07:14:00 AM 40.0801 116.5846 288° West  Level Estimated
Mon 07:14:29 AM 39.9460 116.6350 288° West 178 205 2,000  Level FlightAware ADS-B
Mon 07:14:57 AM 39.9650 116.6320 353° North 178 205 2,000 -818 Level FlightAware ADS-B
Mon 07:15:13 AM 39.9460 116.6350 173° South 153 176 1,400 -1,350 Descending FlightAware ADS-B
Mon 07:15:37 AM 39.9960 116.6280 354° North 151 174 1,100 -400 Descending FlightAware ADS-B
Mon 07:16:13 AM 40.0170 116.6240 352° North 150 173 1,000 -167 Descending FlightAware ADS-B
Mon 07:18:00 AM 40.0801 116.5846 334° Northwest  Level Estimated
Mon 07:19:00 AM 40.0801 116.5846 288° West  Level Estimated
Mon 07:20:00 AM 40.0801 116.5846 288° West  Level Estimated
Mon 07:21:00 AM 40.0801 116.5846 288° West  Level Estimated
Mon 07:22:00 AM 40.0801 116.5846 288° West  Level Estimated
Mon 07:23:00 AM 40.0801 116.5846 288° West  Level Estimated
Mon 07:24:00 AM 40.0801 116.5846 288° West  Level Estimated
Mon 07:25:00 AM 40.0801 116.5846 288° West  Level Estimated

Login

Don't have an account? Register now (free) for customized features, flight alerts, and more!